sensor_id;sensor_type;location;lat;lon;timestamp;temperature;humidity
71206;SHT31;58935;54.498;18.544;2023-08-07T00:00:12;17.39;84.91
71206;SHT31;58935;54.498;18.544;2023-08-07T00:02:37;17.39;84.80
71206;SHT31;58935;54.498;18.544;2023-08-07T00:05:03;17.39;84.60
71206;SHT31;58935;54.498;18.544;2023-08-07T00:07:31;17.39;84.40
71206;SHT31;58935;54.498;18.544;2023-08-07T00:09:56;17.39;84.17
71206;SHT31;58935;54.498;18.544;2023-08-07T00:12:22;17.36;83.89
71206;SHT31;58935;54.498;18.544;2023-08-07T00:14:50;17.35;83.77
71206;SHT31;58935;54.498;18.544;2023-08-07T00:17:16;17.32;83.50
71206;SHT31;58935;54.498;18.544;2023-08-07T00:19:41;17.25;83.13
71206;SHT31;58935;54.498;18.544;2023-08-07T00:22:07;17.22;83.12
71206;SHT31;58935;54.498;18.544;2023-08-07T00:24:32;17.17;82.93
71206;SHT31;58935;54.498;18.544;2023-08-07T00:26:58;17.11;82.57
71206;SHT31;58935;54.498;18.544;2023-08-07T00:29:23;17.06;82.47
71206;SHT31;58935;54.498;18.544;2023-08-07T00:31:48;17.01;82.29
71206;SHT31;58935;54.498;18.544;2023-08-07T00:34:14;16.97;82.30
71206;SHT31;58935;54.498;18.544;2023-08-07T00:36:40;16.94;82.30
71206;SHT31;58935;54.498;18.544;2023-08-07T00:39:06;16.91;82.26
71206;SHT31;58935;54.498;18.544;2023-08-07T00:41:32;16.86;82.10
71206;SHT31;58935;54.498;18.544;2023-08-07T00:43:58;16.84;82.33
71206;SHT31;58935;54.498;18.544;2023-08-07T00:46:23;16.79;82.16
71206;SHT31;58935;54.498;18.544;2023-08-07T00:48:49;16.75;82.00
71206;SHT31;58935;54.498;18.544;2023-08-07T00:51:17;16.71;82.16
71206;SHT31;58935;54.498;18.544;2023-08-07T00:53:44;16.70;82.20
71206;SHT31;58935;54.498;18.544;2023-08-07T00:56:11;16.69;82.14
71206;SHT31;58935;54.498;18.544;2023-08-07T00:58:36;16.67;82.04
71206;SHT31;58935;54.498;18.544;2023-08-07T01:01:02;16.65;81.92
71206;SHT31;58935;54.498;18.544;2023-08-07T01:03:29;16.61;81.74
71206;SHT31;58935;54.498;18.544;2023-08-07T01:05:54;16.57;81.82
71206;SHT31;58935;54.498;18.544;2023-08-07T01:08:20;16.53;81.88
71206;SHT31;58935;54.498;18.544;2023-08-07T01:10:49;16.49;81.82
71206;SHT31;58935;54.498;18.544;2023-08-07T01:19:19;16.35;81.91
71206;SHT31;58935;54.498;18.544;2023-08-07T01:21:50;16.32;81.90
71206;SHT31;58935;54.498;18.544;2023-08-07T01:24:15;16.29;81.94
71206;SHT31;58935;54.498;18.544;2023-08-07T01:26:42;16.25;81.90
71206;SHT31;58935;54.498;18.544;2023-08-07T01:29:19;16.22;81.98
71206;SHT31;58935;54.498;18.544;2023-08-07T01:31:57;16.20;82.11
71206;SHT31;58935;54.498;18.544;2023-08-07T01:34:26;16.18;82.03
71206;SHT31;58935;54.498;18.544;2023-08-07T01:36:53;16.14;82.12
71206;SHT31;58935;54.498;18.544;2023-08-07T01:39:21;16.09;82.13
71206;SHT31;58935;54.498;18.544;2023-08-07T01:41:48;16.05;82.27
71206;SHT31;58935;54.498;18.544;2023-08-07T01:44:14;16.01;82.42
71206;SHT31;58935;54.498;18.544;2023-08-07T01:46:39;15.99;82.55
71206;SHT31;58935;54.498;18.544;2023-08-07T01:49:04;15.96;82.60
71206;SHT31;58935;54.498;18.544;2023-08-07T01:51:30;15.96;82.69
71206;SHT31;58935;54.498;18.544;2023-08-07T01:53:55;15.93;82.74
71206;SHT31;58935;54.498;18.544;2023-08-07T01:56:20;15.92;82.77
71206;SHT31;58935;54.498;18.544;2023-08-07T01:58:46;15.91;82.90
71206;SHT31;58935;54.498;18.544;2023-08-07T02:01:11;15.92;83.00
71206;SHT31;58935;54.498;18.544;2023-08-07T02:03:36;15.90;83.03
71206;SHT31;58935;54.498;18.544;2023-08-07T02:06:01;15.91;83.02
71206;SHT31;58935;54.498;18.544;2023-08-07T02:08:27;15.91;83.06
71206;SHT31;58935;54.498;18.544;2023-08-07T02:10:53;15.90;83.01
71206;SHT31;58935;54.498;18.544;2023-08-07T02:13:18;15.90;82.96
71206;SHT31;58935;54.498;18.544;2023-08-07T02:15:43;15.91;83.02
71206;SHT31;58935;54.498;18.544;2023-08-07T02:18:09;15.91;83.04
71206;SHT31;58935;54.498;18.544;2023-08-07T02:20:34;15.90;82.99
71206;SHT31;58935;54.498;18.544;2023-08-07T02:22:59;15.89;83.09
71206;SHT31;58935;54.498;18.544;2023-08-07T02:25:25;15.88;83.14
71206;SHT31;58935;54.498;18.544;2023-08-07T02:27:50;15.89;83.19
71206;SHT31;58935;54.498;18.544;2023-08-07T02:30:15;15.90;83.23
71206;SHT31;58935;54.498;18.544;2023-08-07T02:32:41;15.90;83.22
71206;SHT31;58935;54.498;18.544;2023-08-07T02:35:09;15.89;83.21
71206;SHT31;58935;54.498;18.544;2023-08-07T02:37:34;15.89;83.24
71206;SHT31;58935;54.498;18.544;2023-08-07T02:39:59;15.89;83.28
71206;SHT31;58935;54.498;18.544;2023-08-07T02:42:25;15.89;83.34
71206;SHT31;58935;54.498;18.544;2023-08-07T02:44:50;15.90;83.33
71206;SHT31;58935;54.498;18.544;2023-08-07T02:47:15;15.89;83.34
71206;SHT31;58935;54.498;18.544;2023-08-07T02:49:41;15.91;83.41
71206;SHT31;58935;54.498;18.544;2023-08-07T02:52:06;15.93;83.45
71206;SHT31;58935;54.498;18.544;2023-08-07T02:54:32;15.94;83.47
71206;SHT31;58935;54.498;18.544;2023-08-07T02:56:57;15.96;83.52
71206;SHT31;58935;54.498;18.544;2023-08-07T02:59:23;16.00;83.51
71206;SHT31;58935;54.498;18.544;2023-08-07T03:01:49;16.02;83.50
71206;SHT31;58935;54.498;18.544;2023-08-07T03:04:15;16.04;83.49
71206;SHT31;58935;54.498;18.544;2023-08-07T03:06:40;16.04;83.44
71206;SHT31;58935;54.498;18.544;2023-08-07T03:09:05;16.06;83.40
71206;SHT31;58935;54.498;18.544;2023-08-07T03:11:31;16.08;83.32
71206;SHT31;58935;54.498;18.544;2023-08-07T03:13:56;16.10;83.33
71206;SHT31;58935;54.498;18.544;2023-08-07T03:16:22;16.12;83.34
71206;SHT31;58935;54.498;18.544;2023-08-07T03:18:47;16.13;83.30
71206;SHT31;58935;54.498;18.544;2023-08-07T03:21:12;16.14;83.24
71206;SHT31;58935;54.498;18.544;2023-08-07T03:23:38;16.13;83.12
71206;SHT31;58935;54.498;18.544;2023-08-07T03:26:07;16.14;83.10
71206;SHT31;58935;54.498;18.544;2023-08-07T03:28:36;16.15;83.05
71206;SHT31;58935;54.498;18.544;2023-08-07T03:31:02;16.14;83.00
71206;SHT31;58935;54.498;18.544;2023-08-07T03:33:29;16.15;82.89
71206;SHT31;58935;54.498;18.544;2023-08-07T03:35:54;16.16;82.82
71206;SHT31;58935;54.498;18.544;2023-08-07T03:38:19;16.17;82.80
71206;SHT31;58935;54.498;18.544;2023-08-07T03:40:45;16.20;82.72
71206;SHT31;58935;54.498;18.544;2023-08-07T03:43:10;16.21;82.53
71206;SHT31;58935;54.498;18.544;2023-08-07T03:45:36;16.23;82.46
71206;SHT31;58935;54.498;18.544;2023-08-07T03:48:01;16.25;82.41
71206;SHT31;58935;54.498;18.544;2023-08-07T03:50:27;16.26;82.43
71206;SHT31;58935;54.498;18.544;2023-08-07T03:52:52;16.28;82.40
71206;SHT31;58935;54.498;18.544;2023-08-07T03:55:17;16.30;82.38
71206;SHT31;58935;54.498;18.544;2023-08-07T03:57:43;16.33;82.43
71206;SHT31;58935;54.498;18.544;2023-08-07T04:00:09;16.36;82.33
71206;SHT31;58935;54.498;18.544;2023-08-07T04:02:36;16.37;82.21
71206;SHT31;58935;54.498;18.544;2023-08-07T04:05:01;16.38;81.87
71206;SHT31;58935;54.498;18.544;2023-08-07T04:07:27;16.36;81.65
71206;SHT31;58935;54.498;18.544;2023-08-07T04:09:52;16.36;81.64
71206;SHT31;58935;54.498;18.544;2023-08-07T04:12:18;16.34;81.38
71206;SHT31;58935;54.498;18.544;2023-08-07T04:14:43;16.33;81.39
71206;SHT31;58935;54.498;18.544;2023-08-07T04:17:08;16.32;81.38
71206;SHT31;58935;54.498;18.544;2023-08-07T04:19:34;16.33;81.40
71206;SHT31;58935;54.498;18.544;2023-08-07T04:21:59;16.36;81.02
71206;SHT31;58935;54.498;18.544;2023-08-07T04:24:24;16.37;80.87
71206;SHT31;58935;54.498;18.544;2023-08-07T04:26:50;16.42;80.94
71206;SHT31;58935;54.498;18.544;2023-08-07T04:29:15;16.45;80.66
71206;SHT31;58935;54.498;18.544;2023-08-07T04:31:40;16.47;80.62
71206;SHT31;58935;54.498;18.544;2023-08-07T04:34:06;16.48;80.50
71206;SHT31;58935;54.498;18.544;2023-08-07T04:36:31;16.47;80.30
71206;SHT31;58935;54.498;18.544;2023-08-07T04:38:56;16.44;80.29
71206;SHT31;58935;54.498;18.544;2023-08-07T04:41:22;16.45;80.34
71206;SHT31;58935;54.498;18.544;2023-08-07T04:43:48;16.46;79.91
71206;SHT31;58935;54.498;18.544;2023-08-07T04:46:13;16.43;80.19
71206;SHT31;58935;54.498;18.544;2023-08-07T04:48:39;16.41;80.14
71206;SHT31;58935;54.498;18.544;2023-08-07T04:51:05;16.39;80.03
71206;SHT31;58935;54.498;18.544;2023-08-07T04:53:30;16.35;80.12
71206;SHT31;58935;54.498;18.544;2023-08-07T04:55:56;16.34;80.04
71206;SHT31;58935;54.498;18.544;2023-08-07T04:58:21;16.32;80.10
71206;SHT31;58935;54.498;18.544;2023-08-07T05:00:47;16.30;79.75
71206;SHT31;58935;54.498;18.544;2023-08-07T05:06:25;16.37;79.40
71206;SHT31;58935;54.498;18.544;2023-08-07T05:08:50;16.39;79.38
71206;SHT31;58935;54.498;18.544;2023-08-07T05:11:15;16.44;79.41
71206;SHT31;58935;54.498;18.544;2023-08-07T05:13:41;16.53;79.27
71206;SHT31;58935;54.498;18.544;2023-08-07T05:16:06;16.62;78.89
71206;SHT31;58935;54.498;18.544;2023-08-07T05:18:31;16.70;78.40
71206;SHT31;58935;54.498;18.544;2023-08-07T05:20:57;16.78;78.19
71206;SHT31;58935;54.498;18.544;2023-08-07T05:23:22;16.82;77.71
71206;SHT31;58935;54.498;18.544;2023-08-07T05:25:48;16.88;77.49
71206;SHT31;58935;54.498;18.544;2023-08-07T05:28:13;16.92;77.12
71206;SHT31;58935;54.498;18.544;2023-08-07T05:30:38;16.91;76.96
71206;SHT31;58935;54.498;18.544;2023-08-07T05:33:04;16.92;76.83
71206;SHT31;58935;54.498;18.544;2023-08-07T05:35:29;16.94;76.78
71206;SHT31;58935;54.498;18.544;2023-08-07T05:37:54;16.95;76.60
71206;SHT31;58935;54.498;18.544;2023-08-07T05:40:20;16.94;76.58
71206;SHT31;58935;54.498;18.544;2023-08-07T05:42:45;16.92;76.40
71206;SHT31;58935;54.498;18.544;2023-08-07T05:45:11;16.91;76.08
71206;SHT31;58935;54.498;18.544;2023-08-07T05:47:36;16.87;76.54
71206;SHT31;58935;54.498;18.544;2023-08-07T05:50:01;16.85;76.45
71206;SHT31;58935;54.498;18.544;2023-08-07T05:52:27;16.83;76.44
71206;SHT31;58935;54.498;18.544;2023-08-07T05:54:53;16.82;76.75
71206;SHT31;58935;54.498;18.544;2023-08-07T05:57:18;16.85;76.59
71206;SHT31;58935;54.498;18.544;2023-08-07T05:59:44;16.83;76.18
71206;SHT31;58935;54.498;18.544;2023-08-07T06:02:18;16.84;76.25
71206;SHT31;58935;54.498;18.544;2023-08-07T06:04:44;16.84;76.49
71206;SHT31;58935;54.498;18.544;2023-08-07T06:07:10;16.88;76.45
71206;SHT31;58935;54.498;18.544;2023-08-07T06:09:35;16.89;76.23
71206;SHT31;58935;54.498;18.544;2023-08-07T06:12:00;16.88;76.02
71206;SHT31;58935;54.498;18.544;2023-08-07T06:14:26;16.88;75.78
71206;SHT31;58935;54.498;18.544;2023-08-07T06:16:52;16.87;75.86
71206;SHT31;58935;54.498;18.544;2023-08-07T06:19:17;16.85;75.62
71206;SHT31;58935;54.498;18.544;2023-08-07T06:21:43;16.82;75.78
71206;SHT31;58935;54.498;18.544;2023-08-07T06:24:08;16.84;75.94
71206;SHT31;58935;54.498;18.544;2023-08-07T06:26:34;16.86;75.33
71206;SHT31;58935;54.498;18.544;2023-08-07T06:29:00;16.89;75.39
71206;SHT31;58935;54.498;18.544;2023-08-07T06:31:25;16.96;75.51
71206;SHT31;58935;54.498;18.544;2023-08-07T06:33:50;17.01;75.20
71206;SHT31;58935;54.498;18.544;2023-08-07T06:36:16;16.98;74.48
71206;SHT31;58935;54.498;18.544;2023-08-07T06:38:41;16.99;74.82
71206;SHT31;58935;54.498;18.544;2023-08-07T06:41:06;17.06;74.94
71206;SHT31;58935;54.498;18.544;2023-08-07T06:43:31;17.13;74.53
71206;SHT31;58935;54.498;18.544;2023-08-07T06:45:57;17.17;74.51
71206;SHT31;58935;54.498;18.544;2023-08-07T06:48:22;17.23;74.43
71206;SHT31;58935;54.498;18.544;2023-08-07T06:50:49;17.27;74.37
71206;SHT31;58935;54.498;18.544;2023-08-07T06:53:15;17.33;74.26
71206;SHT31;58935;54.498;18.544;2023-08-07T06:55:41;17.39;74.19
71206;SHT31;58935;54.498;18.544;2023-08-07T06:58:08;17.45;73.94
71206;SHT31;58935;54.498;18.544;2023-08-07T07:00:34;17.44;73.60
71206;SHT31;58935;54.498;18.544;2023-08-07T07:03:01;17.46;73.95
71206;SHT31;58935;54.498;18.544;2023-08-07T07:05:27;17.48;73.68
71206;SHT31;58935;54.498;18.544;2023-08-07T07:07:53;17.47;73.32
71206;SHT31;58935;54.498;18.544;2023-08-07T07:10:19;17.48;73.48
71206;SHT31;58935;54.498;18.544;2023-08-07T07:12:46;17.49;73.60
71206;SHT31;58935;54.498;18.544;2023-08-07T07:15:11;17.51;73.55
71206;SHT31;58935;54.498;18.544;2023-08-07T07:17:38;17.50;73.03
71206;SHT31;58935;54.498;18.544;2023-08-07T07:20:03;17.49;73.16
71206;SHT31;58935;54.498;18.544;2023-08-07T07:22:30;17.48;72.92
71206;SHT31;58935;54.498;18.544;2023-08-07T07:24:55;17.50;73.17
71206;SHT31;58935;54.498;18.544;2023-08-07T07:27:20;17.52;73.31
71206;SHT31;58935;54.498;18.544;2023-08-07T07:29:47;17.50;72.61
71206;SHT31;58935;54.498;18.544;2023-08-07T07:32:13;17.44;72.72
71206;SHT31;58935;54.498;18.544;2023-08-07T07:34:39;17.43;72.92
71206;SHT31;58935;54.498;18.544;2023-08-07T07:40:45;17.46;72.73
71206;SHT31;58935;54.498;18.544;2023-08-07T07:43:10;17.48;72.71
71206;SHT31;58935;54.498;18.544;2023-08-07T07:45:35;17.54;72.34
71206;SHT31;58935;54.498;18.544;2023-08-07T07:48:01;17.60;72.46
71206;SHT31;58935;54.498;18.544;2023-08-07T07:50:28;17.66;72.38
71206;SHT31;58935;54.498;18.544;2023-08-07T07:52:54;17.69;72.03
71206;SHT31;58935;54.498;18.544;2023-08-07T07:55:19;17.72;72.06
71206;SHT31;58935;54.498;18.544;2023-08-07T07:57:45;17.73;71.85
71206;SHT31;58935;54.498;18.544;2023-08-07T08:00:11;17.76;71.68
71206;SHT31;58935;54.498;18.544;2023-08-07T08:02:39;17.77;71.22
71206;SHT31;58935;54.498;18.544;2023-08-07T08:05:06;17.80;71.18
71206;SHT31;58935;54.498;18.544;2023-08-07T08:07:32;17.83;71.03
71206;SHT31;58935;54.498;18.544;2023-08-07T08:09:59;17.85;71.03
71206;SHT31;58935;54.498;18.544;2023-08-07T08:12:26;17.93;71.33
71206;SHT31;58935;54.498;18.544;2023-08-07T08:14:51;18.02;70.95
71206;SHT31;58935;54.498;18.544;2023-08-07T08:17:17;18.16;70.77
71206;SHT31;58935;54.498;18.544;2023-08-07T08:19:42;18.29;70.18
71206;SHT31;58935;54.498;18.544;2023-08-07T08:22:08;18.42;69.85
71206;SHT31;58935;54.498;18.544;2023-08-07T08:24:33;18.51;69.31
71206;SHT31;58935;54.498;18.544;2023-08-07T08:26:59;18.55;69.02
71206;SHT31;58935;54.498;18.544;2023-08-07T08:29:25;18.57;68.84
71206;SHT31;58935;54.498;18.544;2023-08-07T08:31:52;18.58;68.60
71206;SHT31;58935;54.498;18.544;2023-08-07T08:34:19;18.61;68.26
71206;SHT31;58935;54.498;18.544;2023-08-07T08:36:45;18.59;67.95
71206;SHT31;58935;54.498;18.544;2023-08-07T08:39:11;18.54;68.00
71206;SHT31;58935;54.498;18.544;2023-08-07T08:41:36;18.57;68.33
71206;SHT31;58935;54.498;18.544;2023-08-07T08:44:02;18.64;68.12
71206;SHT31;58935;54.498;18.544;2023-08-07T08:46:31;18.67;67.70
71206;SHT31;58935;54.498;18.544;2023-08-07T08:48:59;18.71;67.77
71206;SHT31;58935;54.498;18.544;2023-08-07T08:51:28;18.75;67.56
71206;SHT31;58935;54.498;18.544;2023-08-07T08:53:55;18.87;67.64
71206;SHT31;58935;54.498;18.544;2023-08-07T08:56:21;18.92;66.32
71206;SHT31;58935;54.498;18.544;2023-08-07T08:58:49;18.95;66.39
71206;SHT31;58935;54.498;18.544;2023-08-07T09:01:16;18.95;66.24
71206;SHT31;58935;54.498;18.544;2023-08-07T09:03:43;19.02;66.41
71206;SHT31;58935;54.498;18.544;2023-08-07T09:06:11;19.04;65.61
71206;SHT31;58935;54.498;18.544;2023-08-07T09:08:38;19.07;65.71
71206;SHT31;58935;54.498;18.544;2023-08-07T09:11:07;19.04;64.97
71206;SHT31;58935;54.498;18.544;2023-08-07T09:13:36;19.00;64.99
71206;SHT31;58935;54.498;18.544;2023-08-07T09:16:03;18.97;65.25
71206;SHT31;58935;54.498;18.544;2023-08-07T09:18:32;18.92;65.26
71206;SHT31;58935;54.498;18.544;2023-08-07T09:20:59;18.91;66.10
71206;SHT31;58935;54.498;18.544;2023-08-07T09:23:25;18.99;66.33
71206;SHT31;58935;54.498;18.544;2023-08-07T09:28:30;19.16;64.99
71206;SHT31;58935;54.498;18.544;2023-08-07T09:30:57;19.11;64.82
71206;SHT31;58935;54.498;18.544;2023-08-07T09:33:24;19.05;65.14
71206;SHT31;58935;54.498;18.544;2023-08-07T09:35:51;19.00;65.39
71206;SHT31;58935;54.498;18.544;2023-08-07T09:38:22;19.05;65.72
71206;SHT31;58935;54.498;18.544;2023-08-07T09:40:48;19.12;65.44
71206;SHT31;58935;54.498;18.544;2023-08-07T09:43:20;19.16;64.95
71206;SHT31;58935;54.498;18.544;2023-08-07T09:45:47;19.15;65.19
71206;SHT31;58935;54.498;18.544;2023-08-07T09:48:20;19.19;65.68
71206;SHT31;58935;54.498;18.544;2023-08-07T09:50:50;19.31;65.45
71206;SHT31;58935;54.498;18.544;2023-08-07T09:53:15;19.36;64.82
71206;SHT31;58935;54.498;18.544;2023-08-07T09:55:41;19.42;64.40
71206;SHT31;58935;54.498;18.544;2023-08-07T09:58:08;19.48;64.87
71206;SHT31;58935;54.498;18.544;2023-08-07T10:00:34;19.56;64.89
71206;SHT31;58935;54.498;18.544;2023-08-07T10:03:00;19.62;64.16
71206;SHT31;58935;54.498;18.544;2023-08-07T10:05:27;19.64;64.08
71206;SHT31;58935;54.498;18.544;2023-08-07T10:07:53;19.57;63.62
71206;SHT31;58935;54.498;18.544;2023-08-07T10:10:20;19.52;64.02
71206;SHT31;58935;54.498;18.544;2023-08-07T10:12:46;19.53;64.16
71206;SHT31;58935;54.498;18.544;2023-08-07T10:15:14;19.54;63.74
71206;SHT31;58935;54.498;18.544;2023-08-07T10:17:40;19.53;63.27
71206;SHT31;58935;54.498;18.544;2023-08-07T10:20:06;19.51;63.56
71206;SHT31;58935;54.498;18.544;2023-08-07T10:22:33;19.52;63.36
71206;SHT31;58935;54.498;18.544;2023-08-07T10:25:03;19.52;64.08
71206;SHT31;58935;54.498;18.544;2023-08-07T10:27:31;19.58;63.67
71206;SHT31;58935;54.498;18.544;2023-08-07T10:30:02;19.61;63.34
71206;SHT31;58935;54.498;18.544;2023-08-07T10:32:38;19.61;63.17
71206;SHT31;58935;54.498;18.544;2023-08-07T10:35:06;19.64;62.56
71206;SHT31;58935;54.498;18.544;2023-08-07T10:37:33;19.64;62.98
71206;SHT31;58935;54.498;18.544;2023-08-07T10:40:09;19.67;62.45
71206;SHT31;58935;54.498;18.544;2023-08-07T10:45:23;19.75;62.50
71206;SHT31;58935;54.498;18.544;2023-08-07T10:47:57;19.78;61.40
71206;SHT31;58935;54.498;18.544;2023-08-07T10:50:34;19.78;61.67
71206;SHT31;58935;54.498;18.544;2023-08-07T10:53:20;19.86;61.64
71206;SHT31;58935;54.498;18.544;2023-08-07T10:55:59;19.88;60.51
71206;SHT31;58935;54.498;18.544;2023-08-07T10:58:31;19.86;60.84
71206;SHT31;58935;54.498;18.544;2023-08-07T11:04:08;19.85;60.01
71206;SHT31;58935;54.498;18.544;2023-08-07T11:06:37;19.82;60.28
71206;SHT31;58935;54.498;18.544;2023-08-07T11:09:05;19.82;60.25
71206;SHT31;58935;54.498;18.544;2023-08-07T11:11:40;19.84;60.35
71206;SHT31;58935;54.498;18.544;2023-08-07T11:14:09;19.92;60.48
71206;SHT31;58935;54.498;18.544;2023-08-07T11:16:36;19.99;60.35
71206;SHT31;58935;54.498;18.544;2023-08-07T11:19:02;20.06;60.16
71206;SHT31;58935;54.498;18.544;2023-08-07T11:21:30;20.15;59.84
71206;SHT31;58935;54.498;18.544;2023-08-07T11:23:57;20.16;59.39
71206;SHT31;58935;54.498;18.544;2023-08-07T11:26:23;20.17;59.09
71206;SHT31;58935;54.498;18.544;2023-08-07T11:28:50;20.13;59.12
71206;SHT31;58935;54.498;18.544;2023-08-07T11:31:19;20.09;58.92
71206;SHT31;58935;54.498;18.544;2023-08-07T11:33:47;20.00;58.83
71206;SHT31;58935;54.498;18.544;2023-08-07T11:36:15;19.92;59.73
71206;SHT31;58935;54.498;18.544;2023-08-07T11:38:41;19.82;59.33
71206;SHT31;58935;54.498;18.544;2023-08-07T11:41:09;19.71;59.84
71206;SHT31;58935;54.498;18.544;2023-08-07T11:43:42;19.67;60.16
71206;SHT31;58935;54.498;18.544;2023-08-07T11:46:09;19.69;60.68
71206;SHT31;58935;54.498;18.544;2023-08-07T11:48:38;19.77;61.22
71206;SHT31;58935;54.498;18.544;2023-08-07T11:51:06;19.86;60.99
71206;SHT31;58935;54.498;18.544;2023-08-07T11:53:33;19.92;60.33
71206;SHT31;58935;54.498;18.544;2023-08-07T11:56:02;19.88;59.93
71206;SHT31;58935;54.498;18.544;2023-08-07T11:58:34;19.81;59.94
71206;SHT31;58935;54.498;18.544;2023-08-07T12:01:05;19.75;60.41
71206;SHT31;58935;54.498;18.544;2023-08-07T12:03:35;19.72;60.98
71206;SHT31;58935;54.498;18.544;2023-08-07T12:06:04;19.70;61.19
71206;SHT31;58935;54.498;18.544;2023-08-07T12:08:38;19.66;61.48
71206;SHT31;58935;54.498;18.544;2023-08-07T12:11:06;19.65;61.60
71206;SHT31;58935;54.498;18.544;2023-08-07T12:13:37;19.65;61.10
71206;SHT31;58935;54.498;18.544;2023-08-07T12:16:04;19.64;61.32
71206;SHT31;58935;54.498;18.544;2023-08-07T12:18:30;19.65;61.56
71206;SHT31;58935;54.498;18.544;2023-08-07T12:21:00;19.66;61.36
71206;SHT31;58935;54.498;18.544;2023-08-07T12:23:29;19.63;61.44
71206;SHT31;58935;54.498;18.544;2023-08-07T12:25:58;19.62;61.61
71206;SHT31;58935;54.498;18.544;2023-08-07T12:28:23;19.69;61.51
71206;SHT31;58935;54.498;18.544;2023-08-07T12:30:50;19.69;60.89
71206;SHT31;58935;54.498;18.544;2023-08-07T12:33:16;19.73;61.24
71206;SHT31;58935;54.498;18.544;2023-08-07T12:35:42;19.81;61.74
71206;SHT31;58935;54.498;18.544;2023-08-07T12:38:07;19.91;61.32
71206;SHT31;58935;54.498;18.544;2023-08-07T12:40:34;19.93;61.11
71206;SHT31;58935;54.498;18.544;2023-08-07T12:43:01;19.95;61.31
71206;SHT31;58935;54.498;18.544;2023-08-07T12:45:28;19.98;61.13
71206;SHT31;58935;54.498;18.544;2023-08-07T12:47:53;20.02;61.11
71206;SHT31;58935;54.498;18.544;2023-08-07T12:50:19;20.07;60.71
71206;SHT31;58935;54.498;18.544;2023-08-07T12:52:44;20.07;60.61
71206;SHT31;58935;54.498;18.544;2023-08-07T12:55:10;20.07;60.63
71206;SHT31;58935;54.498;18.544;2023-08-07T12:57:36;20.02;60.52
71206;SHT31;58935;54.498;18.544;2023-08-07T13:00:05;19.92;60.97
71206;SHT31;58935;54.498;18.544;2023-08-07T13:02:33;19.88;61.63
71206;SHT31;58935;54.498;18.544;2023-08-07T13:04:58;19.84;61.12
71206;SHT31;58935;54.498;18.544;2023-08-07T13:07:23;19.78;61.23
71206;SHT31;58935;54.498;18.544;2023-08-07T13:09:50;19.79;61.67
71206;SHT31;58935;54.498;18.544;2023-08-07T13:12:15;19.78;61.34
71206;SHT31;58935;54.498;18.544;2023-08-07T13:14:41;19.75;61.41
71206;SHT31;58935;54.498;18.544;2023-08-07T13:17:06;19.72;61.50
71206;SHT31;58935;54.498;18.544;2023-08-07T13:19:31;19.72;61.41
71206;SHT31;58935;54.498;18.544;2023-08-07T13:21:57;19.74;61.24
71206;SHT31;58935;54.498;18.544;2023-08-07T13:24:22;19.75;61.46
71206;SHT31;58935;54.498;18.544;2023-08-07T13:26:48;19.77;61.20
71206;SHT31;58935;54.498;18.544;2023-08-07T13:29:13;19.82;61.07
71206;SHT31;58935;54.498;18.544;2023-08-07T13:31:39;19.88;60.88
71206;SHT31;58935;54.498;18.544;2023-08-07T13:34:06;19.93;60.58
71206;SHT31;58935;54.498;18.544;2023-08-07T13:36:33;19.94;60.42
71206;SHT31;58935;54.498;18.544;2023-08-07T13:39:01;19.91;60.69
71206;SHT31;58935;54.498;18.544;2023-08-07T13:41:26;19.92;60.81
71206;SHT31;58935;54.498;18.544;2023-08-07T13:43:52;19.93;60.93
71206;SHT31;58935;54.498;18.544;2023-08-07T13:46:17;19.95;60.68
71206;SHT31;58935;54.498;18.544;2023-08-07T13:48:43;19.91;60.21
71206;SHT31;58935;54.498;18.544;2023-08-07T13:51:13;19.88;60.37
71206;SHT31;58935;54.498;18.544;2023-08-07T13:53:39;19.84;60.21
71206;SHT31;58935;54.498;18.544;2023-08-07T13:58:54;19.59;60.88
71206;SHT31;58935;54.498;18.544;2023-08-07T14:01:20;19.51;61.34
71206;SHT31;58935;54.498;18.544;2023-08-07T14:03:46;19.46;61.71
71206;SHT31;58935;54.498;18.544;2023-08-07T14:06:11;19.35;61.61
71206;SHT31;58935;54.498;18.544;2023-08-07T14:08:36;19.20;62.09
71206;SHT31;58935;54.498;18.544;2023-08-07T14:11:02;19.07;62.87
71206;SHT31;58935;54.498;18.544;2023-08-07T14:13:28;18.98;63.72
71206;SHT31;58935;54.498;18.544;2023-08-07T14:15:53;18.89;64.87
71206;SHT31;58935;54.498;18.544;2023-08-07T14:18:19;18.84;66.26
71206;SHT31;58935;54.498;18.544;2023-08-07T14:20:44;18.73;67.43
71206;SHT31;58935;54.498;18.544;2023-08-07T14:23:10;18.61;68.38
71206;SHT31;58935;54.498;18.544;2023-08-07T14:25:35;18.55;69.13
71206;SHT31;58935;54.498;18.544;2023-08-07T14:28:01;18.66;69.84
71206;SHT31;58935;54.498;18.544;2023-08-07T14:30:26;18.78;69.29
71206;SHT31;58935;54.498;18.544;2023-08-07T14:32:51;18.87;69.07
71206;SHT31;58935;54.498;18.544;2023-08-07T14:35:17;19.00;68.30
71206;SHT31;58935;54.498;18.544;2023-08-07T14:37:42;19.00;67.70
71206;SHT31;58935;54.498;18.544;2023-08-07T14:40:08;19.01;66.75
71206;SHT31;58935;54.498;18.544;2023-08-07T14:42:34;18.96;66.43
71206;SHT31;58935;54.498;18.544;2023-08-07T14:44:59;18.94;66.80
71206;SHT31;58935;54.498;18.544;2023-08-07T14:47:25;18.96;66.67
71206;SHT31;58935;54.498;18.544;2023-08-07T14:49:51;18.94;66.99
71206;SHT31;58935;54.498;18.544;2023-08-07T14:52:16;18.88;67.61
71206;SHT31;58935;54.498;18.544;2023-08-07T14:54:41;18.75;67.84
71206;SHT31;58935;54.498;18.544;2023-08-07T14:57:07;18.66;68.13
71206;SHT31;58935;54.498;18.544;2023-08-07T14:59:32;18.59;68.58
71206;SHT31;58935;54.498;18.544;2023-08-07T15:01:57;18.50;68.97
71206;SHT31;58935;54.498;18.544;2023-08-07T15:04:23;18.39;69.09
71206;SHT31;58935;54.498;18.544;2023-08-07T15:06:48;18.30;69.31
71206;SHT31;58935;54.498;18.544;2023-08-07T15:09:15;18.20;69.38
71206;SHT31;58935;54.498;18.544;2023-08-07T15:11:42;18.10;69.69
71206;SHT31;58935;54.498;18.544;2023-08-07T15:14:07;18.01;70.64
71206;SHT31;58935;54.498;18.544;2023-08-07T15:16:33;17.98;71.07
71206;SHT31;58935;54.498;18.544;2023-08-07T15:19:00;17.97;71.00
71206;SHT31;58935;54.498;18.544;2023-08-07T15:21:25;18.04;70.90
71206;SHT31;58935;54.498;18.544;2023-08-07T15:23:51;18.11;69.95
71206;SHT31;58935;54.498;18.544;2023-08-07T15:26:16;18.15;69.32
71206;SHT31;58935;54.498;18.544;2023-08-07T15:28:41;18.17;69.28
71206;SHT31;58935;54.498;18.544;2023-08-07T15:31:06;18.16;68.94
71206;SHT31;58935;54.498;18.544;2023-08-07T15:33:32;18.14;69.15